ADDS METAR Data INFO
IDs: Format: Raw Decoded Include TAF

Data at: 0345 UTC 17 Oct 2017

KTKI 170253Z 00000KT 10SM CLR 12/06 A3029 RMK AO2 SLP263 T01170061 50008
KTKI 170153Z 00000KT 10SM CLR 13/05 A3029 RMK AO2 SLP265 T01330050
KTKI 170053Z 00000KT 10SM CLR 16/04 A3028 RMK AO2 SLP261 T01610039
KTKI 162353Z 07003KT 10SM CLR 19/03 A3027 RMK AO2 SLP255 T01890033 10228 20189 55005
KTKI 162253Z 06008KT 10SM CLR 22/02 A3026 RMK AO2 SLP252 T02170017
KTKI 162153Z 07006KT 10SM CLR 23/02 A3027 RMK AO2 SLP255 T02280022
KTKI 162053Z 05009KT 10SM CLR 23/01 A3028 RMK AO2 SLP257 T02280011 56034
KTKI 161953Z 00000KT 10SM CLR 22/04 A3031 RMK AO2 SLP267 T02170039
KTKI 161853Z 03009KT 10SM CLR 22/03 A3034 RMK AO2 SLP278 T02220033
KTKI 161753Z 02007KT 340V080 10SM CLR 20/04 A3038 RMK AO2 SLP293 T02000039 10206 20061 58015
KTKI 161653Z VRB06KT 10SM CLR 19/06 A3041 RMK AO2 SLP302 T01890056
KTKI 161553Z 10008KT 10SM CLR 17/06 A3043 RMK AO2 SLP309 T01720061
KTKI 161453Z 06006KT 10SM CLR 15/06 A3043 RMK AO2 SLP308 T01500061 53013
KTKI 161353Z 01006KT 10SM CLR 11/07 A3042 RMK AO2 SLP306 T01060067
KTKI 161253Z 36005KT 10SM CLR 07/06 A3040 RMK AO2 SLP300 T00670056
KTKI 161153Z 34007KT 10SM CLR 08/06 A3039 RMK AO2 SLP296 T00830056 10117 20083 53008 $
KTKI 161053Z AUTO 34006KT 10SM CLR 09/06 A3038 RMK AO2 SLP291 T00890056 $
KTKI 160953Z AUTO 35006KT 10SM CLR 09/06 A3036 RMK AO2 SLP286 T00890056 $
KTKI 160853Z AUTO 34008KT 10SM CLR 10/06 A3036 RMK AO2 SLP286 T01000061 50002 $
KTKI 160753Z AUTO 34008KT 10SM CLR 11/07 A3037 RMK AO2 SLP286 T01060067 $
KTKI 160653Z AUTO 35008KT 10SM CLR 11/07 A3036 RMK AO2 SLP284 T01110072 $
KTKI 160553Z AUTO 34008KT 10SM CLR 12/07 A3036 RMK AO2 SLP284 T01170072 10189 20100 402610100 50004 $
KTKI 160453Z AUTO 34007KT 10SM CLR 10/07 A3036 RMK AO2 SLP286 T01000067 $
KTKI 160353Z AUTO 33006KT 10SM CLR 13/06 A3036 RMK AO2 SLP284 T01280056 $
KTKI 160253Z 35004KT 10SM CLR 15/06 A3034 RMK AO2 SLP280 T01500061 51025 $
KTKI 160153Z 36007KT 10SM CLR 16/06 A3033 RMK AO2 SLP273 T01610056 $
KTKI 160053Z 01007KT 10SM CLR 17/04 A3030 RMK AO2 SLP264 T01720044 $
KTKI 152353Z 01010G20KT 10SM CLR 19/03 A3027 RMK AO2 SLP252 60000 T01890033 10233 20189 53006 $
KTKI 152253Z 36017KT 10SM CLR 22/04 A3025 RMK AO2 SLP246 T02170044 $
KTKI 152153Z 01015G22KT 10SM CLR 23/05 A3025 RMK AO2 SLP243 T02280050 $
KTKI 152053Z 01019G27KT 10SM CLR 22/05 A3025 RMK AO2 PK WND 01027/2049 RAB24E33 SLP241 P0000 60000 T02170050 58007 $
KTKI 151953Z 35015G22KT 10SM CLR 23/08 A3026 RMK AO2 SLP243 T02280078 $
KTKI 151853Z 01018G25KT 10SM CLR 22/08 A3026 RMK AO2 SLP245 T02220083 $
KTKI 151753Z 01015G22KT 10SM CLR 21/08 A3027 RMK AO2 SLP248 60000 T02060083 10206 20139 50004 $
KTKI 151653Z 36013G21KT 10SM CLR 19/09 A3028 RMK AO2 PK WND 36027/1621 SLP253 T01940094 $
KTKI 151553Z 36017G26KT 10SM CLR 17/11 A3027 RMK AO2 PK WND 36027/1515 SLP251 T01720106 $